Time;durP1;ratioP1;P1;durP2;ratioP2;P2;SDS_P1;SDS_P2;PMS_P1;PMS_P2;Temp;Humidity;BMP_temperature;BMP_pressure;BME280_temperature;BME280_humidity;BME280_pressure;Samples;Min_cycle;Max_cycle;Signal;HPM_P1;HPM_P2
2023/06/30 00:00:59;;;;;;;;;4.00;4.00;;;;;16.42;100.00;98112.00;4935305;28;102158;-70
2023/06/30 00:03:26;;;;;;;;;4.75;3.25;;;;;16.39;100.00;98107.06;4937259;28;102428;-69
2023/06/30 00:05:59;;;;;;;;;3.00;3.00;;;;;16.37;100.00;98117.41;4933776;28;103985;-70
2023/06/30 00:08:45;;;;;;;;;2.00;2.00;;;;;16.34;99.98;98112.44;4934044;28;102087;-70
2023/06/30 00:11:46;;;;;;;;;3.25;3.25;;;;;16.33;100.00;98113.50;4934415;28;102092;-70
2023/06/30 00:14:29;;;;;;;;;2.00;2.00;;;;;16.30;100.00;98114.03;4934399;28;102016;-69
2023/06/30 00:17:02;;;;;;;;;2.00;2.00;;;;;16.24;100.00;98109.56;4935161;28;103042;-70
2023/06/30 00:19:29;;;;;;;;;2.00;2.00;;;;;16.19;100.00;98106.75;4935819;28;102625;-70
2023/06/30 00:21:56;;;;;;;;;2.00;2.00;;;;;16.05;100.00;98085.25;4935423;28;102461;-69
2023/06/30 00:24:23;;;;;;;;;0.00;0.00;;;;;16.17;100.00;98111.59;4937728;28;102362;-69
2023/06/30 00:26:50;;;;;;;;;4.00;3.75;;;;;16.17;100.00;98108.88;4934805;28;104137;-69
2023/06/30 00:29:17;;;;;;;;;3.00;3.00;;;;;16.16;100.00;98109.97;4935912;28;102371;-69
2023/06/30 00:31:44;;;;;;;;;3.00;3.00;;;;;16.14;100.00;98103.94;4933306;28;102161;-69
2023/06/30 00:34:11;;;;;;;;;4.00;3.00;;;;;16.12;100.00;98101.44;4938592;28;102176;-70
2023/06/30 00:36:38;;;;;;;;;3.00;3.00;;;;;16.08;100.00;98094.84;4934035;28;108891;-69
2023/06/30 00:39:05;;;;;;;;;5.00;4.00;;;;;16.04;100.00;98094.50;4934541;28;101999;-70
2023/06/30 00:41:32;;;;;;;;;5.00;4.00;;;;;16.02;100.00;98085.78;4932441;28;101986;-69
2023/06/30 00:43:59;;;;;;;;;2.00;2.00;;;;;15.99;100.00;98086.25;4934593;28;102113;-70
2023/06/30 00:46:26;;;;;;;;;4.67;3.00;;;;;15.90;100.00;98082.28;4931104;28;104376;-70
2023/06/30 00:48:53;;;;;;;;;3.00;3.00;;;;;15.89;100.00;98086.09;4933708;28;102273;-70
2023/06/30 00:51:20;;;;;;;;;2.00;1.00;;;;;15.86;100.00;98077.56;4932540;28;102115;-69
2023/06/30 00:53:47;;;;;;;;;2.00;2.00;;;;;15.83;100.00;98076.19;4934721;28;102138;-69
2023/06/30 00:56:14;;;;;;;;;3.00;3.00;;;;;15.80;100.00;98079.41;4930685;28;104852;-69
2023/06/30 00:58:42;;;;;;;;;3.67;3.67;;;;;15.62;100.00;98055.91;4936206;28;101848;-70
2023/06/30 01:01:18;;;;;;;;;2.00;2.00;;;;;15.70;100.00;98076.50;4934262;28;107634;-70
2023/06/30 01:03:51;;;;;;;;;3.25;3.25;;;;;15.61;100.00;98069.81;4930536;28;103480;-69
2023/06/30 01:06:55;;;;;;;;;2.25;2.00;;;;;15.57;100.00;98071.38;4930318;28;108704;-69
2023/06/30 01:09:54;;;;;;;;;5.00;5.00;;;;;15.51;100.00;98067.72;4930618;28;102038;-70
2023/06/30 01:12:38;;;;;;;;;5.00;5.00;;;;;15.55;100.00;98073.50;4933114;28;102032;-70
2023/06/30 01:15:26;;;;;;;;;4.75;4.75;;;;;15.49;100.00;98067.09;4933100;28;102252;-69
2023/06/30 01:18:09;;;;;;;;;2.25;2.00;;;;;15.39;100.00;98063.38;4936714;28;104176;-70
2023/06/30 01:20:40;;;;;;;;;5.25;5.00;;;;;15.38;100.00;98067.16;4938122;28;104343;-70
2023/06/30 01:23:20;;;;;;;;;4.25;4.00;;;;;15.36;100.00;98064.69;4938165;28;102726;-69
2023/06/30 01:25:48;;;;;;;;;2.75;2.75;;;;;15.29;100.00;98063.19;4933320;28;102044;-69
2023/06/30 01:28:17;;;;;;;;;5.00;5.00;;;;;15.12;100.00;98069.44;4934398;28;104046;-70
2023/06/30 01:30:44;;;;;;;;;12.75;11.75;;;;;14.92;100.00;98058.13;4937464;28;102113;-69
2023/06/30 01:33:12;;;;;;;;;14.00;13.25;;;;;14.73;100.00;98053.91;4937490;28;102676;-69
2023/06/30 01:35:39;;;;;;;;;11.50;10.00;;;;;14.72;100.00;98052.28;4938245;28;102062;-70
2023/06/30 01:38:06;;;;;;;;;9.50;9.50;;;;;14.74;100.00;98047.41;4935978;28;104028;-70
2023/06/30 01:40:33;;;;;;;;;9.00;8.00;;;;;14.78;100.00;98053.19;4934346;28;102002;-70
2023/06/30 01:43:00;;;;;;;;;6.25;6.00;;;;;14.76;100.00;98050.72;4936987;28;102738;-70
2023/06/30 01:45:28;;;;;;;;;6.00;5.00;;;;;14.70;100.00;98051.69;4940457;28;102428;-69
2023/06/30 01:47:56;;;;;;;;;6.25;5.50;;;;;14.76;100.00;98053.47;4938869;28;103981;-69
2023/06/30 01:50:29;;;;;;;;;3.00;2.50;;;;;14.71;100.00;98045.19;4937103;28;102182;-70
2023/06/30 01:52:57;;;;;;;;;3.00;3.00;;;;;14.70;100.00;98046.25;4939174;28;102282;-70
2023/06/30 01:55:26;;;;;;;;;3.75;3.75;;;;;14.68;100.00;98048.38;4937483;28;101933;-69
2023/06/30 01:57:53;;;;;;;;;5.75;5.75;;;;;14.57;100.00;98055.50;4939019;28;104261;-70
2023/06/30 02:00:20;;;;;;;;;5.00;5.00;;;;;14.52;100.00;98060.84;4936624;28;102261;-70
2023/06/30 02:02:47;;;;;;;;;3.50;3.00;;;;;14.49;100.00;98058.59;4939033;28;102379;-70
2023/06/30 02:05:14;;;;;;;;;6.25;5.00;;;;;14.51;100.00;98055.63;4937667;28;103129;-70
2023/06/30 02:07:41;;;;;;;;;6.75;6.50;;;;;14.49;100.00;98055.06;4937175;28;112231;-69
2023/06/30 02:10:08;;;;;;;;;4.25;4.00;;;;;14.44;100.00;98054.94;4933568;28;102601;-70
2023/06/30 02:12:35;;;;;;;;;4.25;4.25;;;;;14.39;100.00;98052.94;4938209;28;102464;-70
2023/06/30 02:15:03;;;;;;;;;7.00;6.00;;;;;14.35;100.00;98046.28;4938695;28;102157;-70
2023/06/30 02:17:32;;;;;;;;;4.75;3.75;;;;;14.29;100.00;98055.41;4934962;28;104088;-69
2023/06/30 02:20:02;;;;;;;;;4.00;3.00;;;;;13.98;100.00;98015.81;4935782;28;102132;-70
2023/06/30 02:22:29;;;;;;;;;5.00;5.00;;;;;14.15;100.00;98056.69;4937055;28;102205;-70
2023/06/30 02:24:56;;;;;;;;;5.00;4.00;;;;;14.14;100.00;98063.19;4939089;28;102168;-71
2023/06/30 02:27:24;;;;;;;;;2.75;2.50;;;;;14.10;100.00;98053.84;4937939;28;104013;-69
2023/06/30 02:29:51;;;;;;;;;6.50;6.50;;;;;14.05;100.00;98048.31;4935858;28;101915;-70
2023/06/30 02:32:19;;;;;;;;;5.00;5.00;;;;;14.10;100.00;98060.13;4939057;28;101898;-70
2023/06/30 02:34:46;;;;;;;;;5.00;4.00;;;;;14.01;100.00;98045.22;4937537;28;102265;-69
2023/06/30 02:37:13;;;;;;;;;3.75;3.75;;;;;14.10;100.00;98054.69;4937347;28;104078;-70
2023/06/30 02:39:41;;;;;;;;;3.25;3.00;;;;;14.05;100.00;98056.47;4934677;28;102401;-70
2023/06/30 02:42:08;;;;;;;;;5.00;5.00;;;;;14.00;100.00;98051.75;4934884;28;102285;-69
2023/06/30 02:44:35;;;;;;;;;11.50;10.25;;;;;13.96;100.00;98047.81;4935970;28;102075;-69
2023/06/30 02:47:02;;;;;;;;;9.00;8.75;;;;;13.84;100.00;98041.56;4937687;28;104015;-69
2023/06/30 02:49:29;;;;;;;;;14.00;13.25;;;;;13.65;100.00;98053.59;4936571;28;102067;-70
2023/06/30 02:51:59;;;;;;;;;17.75;16.00;;;;;13.57;100.00;98048.50;4934198;28;102099;-70
2023/06/30 02:54:26;;;;;;;;;17.50;17.25;;;;;13.54;100.00;98044.38;4937851;28;103437;-70
2023/06/30 02:56:53;;;;;;;;;13.75;13.75;;;;;13.60;100.00;98035.28;4937476;28;104189;-69
2023/06/30 02:59:20;;;;;;;;;10.00;9.50;;;;;13.71;100.00;98042.63;4938536;28;103689;-70
2023/06/30 03:01:47;;;;;;;;;7.00;6.75;;;;;13.78;100.00;98042.50;4937875;28;101927;-69
2023/06/30 03:04:15;;;;;;;;;8.75;7.00;;;;;13.79;100.00;98053.16;4942881;28;102304;-70
2023/06/30 03:06:42;;;;;;;;;6.50;6.50;;;;;13.81;100.00;98051.03;4939128;28;108512;-70
2023/06/30 03:09:09;;;;;;;;;5.00;5.00;;;;;13.89;100.00;98046.31;4938532;28;101998;-70
2023/06/30 03:11:36;;;;;;;;;5.00;4.25;;;;;13.87;100.00;98037.56;4938541;28;102533;-70
2023/06/30 03:14:03;;;;;;;;;5.75;4.50;;;;;13.84;100.00;98028.81;4933672;28;102438;-69
2023/06/30 03:16:30;;;;;;;;;7.00;4.75;;;;;13.97;100.00;98044.06;4937136;28;104051;-70
2023/06/30 03:18:58;;;;;;;;;6.00;5.75;;;;;14.03;100.00;98042.28;4937801;28;102094;-71
2023/06/30 03:21:25;;;;;;;;;3.75;3.75;;;;;14.06;100.00;98041.81;4938178;28;102898;-70
2023/06/30 03:23:52;;;;;;;;;4.50;4.00;;;;;14.08;100.00;98051.41;4936711;28;102274;-70
2023/06/30 03:26:19;;;;;;;;;5.00;5.00;;;;;14.12;100.00;98040.88;4934353;28;103953;-70
2023/06/30 03:28:46;;;;;;;;;5.25;4.50;;;;;14.16;100.00;98042.03;4934181;28;102175;-69
2023/06/30 03:31:13;;;;;;;;;4.50;4.50;;;;;14.20;100.00;98038.63;4938724;28;102354;-70
2023/06/30 03:33:40;;;;;;;;;4.50;4.00;;;;;14.26;100.00;98040.38;4935746;28;102093;-70
2023/06/30 03:36:08;;;;;;;;;4.75;3.00;;;;;14.30;100.00;98038.00;4935434;28;104105;-70
2023/06/30 03:38:35;;;;;;;;;15.00;12.25;;;;;14.18;100.00;98037.22;4936117;28;101908;-71
2023/06/30 03:41:02;;;;;;;;;14.00;12.25;;;;;14.06;100.00;98031.75;4934823;28;102366;-71
2023/06/30 03:43:29;;;;;;;;;13.50;12.25;;;;;14.17;100.00;98033.66;4936511;28;102576;-70
2023/06/30 03:45:56;;;;;;;;;12.50;11.50;;;;;14.28;100.00;98040.97;4935008;28;104011;-70
2023/06/30 03:48:23;;;;;;;;;9.00;8.00;;;;;14.34;100.00;98027.47;4936835;28;102311;-70
2023/06/30 03:50:53;;;;;;;;;4.75;4.00;;;;;14.42;100.00;98021.69;4935911;28;102390;-70
2023/06/30 03:53:21;;;;;;;;;7.00;6.00;;;;;14.46;100.00;98012.00;4934744;28;102096;-71
2023/06/30 03:55:48;;;;;;;;;5.75;5.50;;;;;14.49;100.00;98015.09;4934755;28;103767;-69
2023/06/30 03:58:15;;;;;;;;;8.50;8.00;;;;;14.44;100.00;98016.84;4933020;28;102205;-69
2023/06/30 04:00:42;;;;;;;;;11.00;9.25;;;;;14.49;100.00;98014.25;4937677;28;102183;-69
2023/06/30 04:03:09;;;;;;;;;7.00;6.25;;;;;14.57;100.00;98011.97;4936628;28;103300;-70
2023/06/30 04:05:36;;;;;;;;;7.50;6.50;;;;;14.55;100.00;97999.66;4935023;28;103952;-71
2023/06/30 04:08:03;;;;;;;;;5.00;5.00;;;;;14.71;100.00;98018.81;4934754;28;102319;-70
2023/06/30 04:10:31;;;;;;;;;5.50;5.25;;;;;14.76;100.00;98020.78;4926602;28;102806;-70
2023/06/30 04:12:58;;;;;;;;;4.00;4.00;;;;;14.82;100.00;98030.69;4936792;28;102032;-70
2023/06/30 04:15:25;;;;;;;;;7.00;6.00;;;;;14.84;100.00;98023.13;4932002;28;104029;-69
2023/06/30 04:17:52;;;;;;;;;2.75;2.50;;;;;14.66;100.00;97988.75;4931005;28;103597;-69
2023/06/30 04:20:19;;;;;;;;;5.00;4.75;;;;;15.02;100.00;98025.66;4935316;28;102417;-70
2023/06/30 04:22:46;;;;;;;;;5.50;5.00;;;;;15.11;100.00;98024.19;4931293;28;102777;-69
2023/06/30 04:25:13;;;;;;;;;5.50;5.50;;;;;15.24;100.00;98033.97;4933571;28;103894;-68
2023/06/30 04:27:40;;;;;;;;;5.25;5.25;;;;;15.37;100.00;98030.09;4934910;28;102305;-69
2023/06/30 04:30:07;;;;;;;;;4.00;3.50;;;;;15.47;100.00;98030.28;4933272;28;103164;-70
2023/06/30 04:32:35;;;;;;;;;6.75;6.25;;;;;15.62;100.00;98027.84;4935332;28;101983;-70
2023/06/30 04:35:02;;;;;;;;;4.25;4.00;;;;;15.76;100.00;98017.44;4933753;28;104218;-70
2023/06/30 04:37:29;;;;;;;;;4.25;4.25;;;;;15.92;100.00;98020.16;4934500;28;102245;-70
2023/06/30 04:39:59;;;;;;;;;4.25;4.00;;;;;16.07;100.00;98025.81;4932524;28;102745;-69
2023/06/30 04:42:29;;;;;;;;;5.00;5.00;;;;;16.16;100.00;98020.78;4926848;28;102529;-69
2023/06/30 04:44:56;;;;;;;;;10.00;9.00;;;;;16.37;100.00;98027.34;4928559;28;104097;-68
2023/06/30 04:47:23;;;;;;;;;9.75;9.00;;;;;16.61;100.00;98027.97;4932486;28;102414;-71
2023/06/30 04:49:50;;;;;;;;;8.25;8.25;;;;;16.86;100.00;98020.91;4932148;28;102268;-70
2023/06/30 04:52:17;;;;;;;;;17.00;15.25;;;;;17.23;100.00;98017.50;4931664;28;102376;-70
2023/06/30 04:54:44;;;;;;;;;14.50;13.50;;;;;17.61;100.00;98019.22;4939430;28;104022;-71
2023/06/30 04:57:11;;;;;;;;;17.50;16.25;;;;;17.95;99.18;98000.66;4939208;28;102380;-71
2023/06/30 04:59:38;;;;;;;;;22.00;20.50;;;;;18.39;96.74;98012.97;4931453;28;102024;-71
2023/06/30 05:02:06;;;;;;;;;14.75;13.75;;;;;18.67;92.59;98003.56;4939427;28;102256;-71
2023/06/30 05:04:33;;;;;;;;;11.75;11.50;;;;;18.91;89.06;98009.41;4938271;28;104058;-71
2023/06/30 05:07:00;;;;;;;;;16.00;15.25;;;;;19.23;90.78;98006.47;4935699;28;102242;-70
2023/06/30 05:09:27;;;;;;;;;15.25;13.50;;;;;19.52;89.67;98011.19;4931139;28;102130;-71
2023/06/30 05:11:54;;;;;;;;;16.00;15.25;;;;;19.75;84.46;98009.00;4933682;28;102136;-71
2023/06/30 05:14:21;;;;;;;;;19.75;19.00;;;;;19.99;86.85;97988.16;4936909;28;104181;-71
2023/06/30 05:16:48;;;;;;;;;18.75;17.25;;;;;20.31;83.58;98001.56;4933249;28;102318;-71
2023/06/30 05:19:15;;;;;;;;;15.00;14.33;;;;;20.36;81.75;97994.13;4939332;28;102348;-72
2023/06/30 05:21:42;;;;;;;;;12.67;11.67;;;;;20.52;81.17;98002.34;4936484;28;103761;-73
2023/06/30 05:24:09;;;;;;;;;12.33;11.00;;;;;20.63;77.84;97992.94;4937395;28;104162;-70
2023/06/30 05:26:36;;;;;;;;;9.00;8.67;;;;;20.76;77.38;97987.66;4935469;28;102237;-71
2023/06/30 05:29:04;;;;;;;;;11.00;10.00;;;;;20.91;78.62;97995.03;4935345;28;101973;-71
2023/06/30 05:31:31;;;;;;;;;7.00;6.00;;;;;21.09;76.09;97999.88;4937295;28;103233;-71
2023/06/30 05:33:58;;;;;;;;;6.67;6.33;;;;;21.13;75.11;97994.66;4936169;28;104145;-71
2023/06/30 05:36:25;;;;;;;;;9.00;7.00;;;;;21.27;75.23;97993.75;4935941;28;102323;-71
2023/06/30 05:38:52;;;;;;;;;7.67;6.00;;;;;21.35;74.95;97998.66;4937167;28;102753;-71
2023/06/30 05:41:19;;;;;;;;;8.00;8.00;;;;;21.39;75.13;97995.34;4937630;28;102204;-70
2023/06/30 05:43:46;;;;;;;;;8.00;7.00;;;;;21.46;74.01;97996.66;4942049;28;104054;-71
2023/06/30 05:46:13;;;;;;;;;10.00;9.00;;;;;21.51;75.35;97998.56;4939776;28;102203;-70
2023/06/30 05:48:40;;;;;;;;;10.00;9.00;;;;;21.75;75.65;98000.28;4923777;28;101901;-70
2023/06/30 05:51:07;;;;;;;;;6.00;4.67;;;;;21.76;73.04;98004.69;4939849;28;103178;-70
2023/06/30 05:53:34;;;;;;;;;7.33;7.00;;;;;21.90;72.86;98002.09;4938002;28;104024;-71
2023/06/30 05:56:01;;;;;;;;;8.67;7.67;;;;;21.79;71.28;97967.50;4939652;28;102068;-70
2023/06/30 05:58:28;;;;;;;;;7.67;7.67;;;;;22.15;72.87;98004.63;4940833;28;101979;-70
2023/06/30 06:00:55;;;;;;;;;12.33;11.00;;;;;22.22;72.35;97999.63;4940684;28;102452;-70
2023/06/30 06:03:23;;;;;;;;;10.00;9.33;;;;;22.36;74.98;98005.25;4939964;28;104029;-70
2023/06/30 06:05:50;;;;;;;;;10.00;10.00;;;;;22.37;74.19;98008.84;4939902;28;102581;-70
2023/06/30 06:08:18;;;;;;;;;12.00;12.00;;;;;22.29;75.58;98006.72;4940031;28;103346;-69
2023/06/30 06:10:46;;;;;;;;;11.00;10.00;;;;;22.51;70.58;98012.53;4938707;28;102162;-70
2023/06/30 06:13:30;;;;;;;;;8.33;6.33;;;;;22.57;71.30;97964.50;4939690;28;110103;-70
2023/06/30 06:15:57;;;;;;;;;8.33;8.33;;;;;22.85;65.65;97991.22;4937664;28;101976;-70
2023/06/30 06:18:24;;;;;;;;;7.00;7.00;;;;;23.01;66.48;98011.94;4939175;28;103544;-71
2023/06/30 06:20:51;;;;;;;;;7.00;7.00;;;;;23.06;65.45;98005.53;4937948;28;102124;-70
2023/06/30 06:23:18;;;;;;;;;7.00;7.00;;;;;23.18;68.39;98010.63;4940913;28;104010;-70
2023/06/30 06:25:45;;;;;;;;;8.67;7.33;;;;;23.01;65.98;98000.91;4938367;28;101914;-71
2023/06/30 06:28:13;;;;;;;;;8.67;8.00;;;;;23.15;69.21;98006.53;4939298;28;102000;-70
2023/06/30 06:30:40;;;;;;;;;7.33;7.33;;;;;23.12;65.81;98005.19;4941163;28;102595;-70
2023/06/30 06:33:07;;;;;;;;;6.00;6.00;;;;;23.16;63.82;98010.94;4939312;28;104436;-70
2023/06/30 06:35:34;;;;;;;;;6.67;6.33;;;;;23.28;64.18;98004.97;4938735;28;102258;-70
2023/06/30 06:38:02;;;;;;;;;6.33;6.33;;;;;23.22;65.42;97995.13;4938416;28;103483;-70
2023/06/30 06:40:29;;;;;;;;;8.00;8.00;;;;;23.49;64.47;98000.84;4940289;28;102236;-70
2023/06/30 06:42:56;;;;;;;;;8.00;8.00;;;;;23.64;66.83;97997.81;4936377;28;104082;-70
2023/06/30 06:45:23;;;;;;;;;4.00;4.00;;;;;23.66;61.07;97998.34;4938704;28;102403;-70
2023/06/30 06:48:19;;;;;;;;;5.00;5.00;;;;;23.70;61.93;98001.31;4942065;28;102379;-71
2023/06/30 06:50:57;;;;;;;;;6.00;6.00;;;;;23.75;61.59;97999.31;4937556;28;102700;-71
2023/06/30 06:53:28;;;;;;;;;5.00;5.00;;;;;23.74;61.27;98002.34;4934948;28;108863;-70
2023/06/30 06:55:56;;;;;;;;;7.33;6.33;;;;;23.78;62.25;97992.34;4936063;28;102037;-70
2023/06/30 06:58:25;;;;;;;;;6.00;5.00;;;;;23.87;61.19;97994.13;4938921;28;102463;-70
2023/06/30 07:00:52;;;;;;;;;7.00;6.00;;;;;23.90;61.72;98001.00;4941963;28;104235;-70
2023/06/30 07:03:19;;;;;;;;;6.33;6.00;;;;;23.98;62.22;97992.84;4939179;28;108348;-70
2023/06/30 07:05:47;;;;;;;;;5.33;5.33;;;;;24.19;60.22;98003.56;4937908;28;102141;-69
2023/06/30 07:08:16;;;;;;;;;6.00;6.00;;;;;24.38;62.42;97996.84;4939159;28;101984;-70
2023/06/30 07:10:46;;;;;;;;;7.00;6.33;;;;;24.45;58.14;97994.50;4938935;28;103582;-69
2023/06/30 07:13:18;;;;;;;;;5.33;5.33;;;;;24.53;59.00;97990.22;4936544;28;104062;-70
2023/06/30 07:15:47;;;;;;;;;7.00;5.00;;;;;24.59;58.58;97972.38;4935008;28;102250;-70
2023/06/30 07:18:18;;;;;;;;;6.00;6.00;;;;;24.90;56.62;97986.47;4936068;28;101918;-70
2023/06/30 07:20:53;;;;;;;;;6.00;6.00;;;;;24.72;57.61;97979.84;4936328;28;102333;-70
2023/06/30 07:23:20;;;;;;;;;6.00;6.00;;;;;24.51;56.16;97978.63;4939395;28;108507;-71
2023/06/30 07:25:52;;;;;;;;;6.67;6.33;;;;;24.48;57.03;97984.78;4937968;28;102250;-70
2023/06/30 07:28:19;;;;;;;;;6.00;5.67;;;;;24.30;57.89;97978.22;4939167;28;102371;-70
2023/06/30 07:30:46;;;;;;;;;4.33;4.33;;;;;24.19;56.21;97987.81;4936779;28;102100;-70
2023/06/30 07:33:13;;;;;;;;;5.33;4.67;;;;;24.18;57.59;97988.13;4934997;28;104345;-70
2023/06/30 07:35:40;;;;;;;;;4.00;4.00;;;;;24.14;57.07;97974.03;4934377;28;102972;-71
2023/06/30 07:38:07;;;;;;;;;6.00;6.00;;;;;24.02;56.67;97980.06;4937760;28;102063;-70
2023/06/30 07:40:34;;;;;;;;;6.00;6.00;;;;;23.91;57.65;97975.03;4939293;28;102040;-70
2023/06/30 07:43:04;;;;;;;;;4.00;4.00;;;;;23.97;56.95;97980.16;4937878;28;103481;-71
2023/06/30 07:45:31;;;;;;;;;5.00;5.00;;;;;23.84;57.47;97982.88;4935033;28;102362;-70
2023/06/30 07:47:59;;;;;;;;;5.00;5.00;;;;;23.98;59.34;97976.28;4937221;28;103651;-70
2023/06/30 07:50:26;;;;;;;;;3.33;3.00;;;;;24.09;60.09;97976.91;4935818;28;101975;-70
2023/06/30 07:52:53;;;;;;;;;5.00;5.00;;;;;24.02;56.89;97960.72;4935404;28;103977;-70
2023/06/30 07:55:20;;;;;;;;;3.00;3.00;;;;;24.10;56.91;97972.19;4940602;28;102144;-70
2023/06/30 07:57:48;;;;;;;;;4.00;4.00;;;;;24.03;59.19;97967.09;4935805;28;102003;-70
2023/06/30 08:00:18;;;;;;;;;5.33;5.00;;;;;23.99;58.79;97972.41;4939074;28;102404;-70
2023/06/30 08:02:46;;;;;;;;;4.00;3.67;;;;;23.93;57.03;97967.25;4937399;28;104476;-70
2023/06/30 08:05:13;;;;;;;;;4.33;4.00;;;;;23.95;58.54;97967.78;4937721;28;101990;-70
2023/06/30 08:07:41;;;;;;;;;3.00;3.00;;;;;24.01;59.10;97964.59;4937770;28;102227;-69
2023/06/30 08:10:16;;;;;;;;;3.67;3.67;;;;;23.98;58.93;97970.75;4936995;28;102082;-69
2023/06/30 08:12:44;;;;;;;;;4.00;3.67;;;;;24.04;60.29;97962.38;4936886;28;104127;-70
2023/06/30 08:15:11;;;;;;;;;3.67;3.00;;;;;24.10;57.70;97955.63;4937841;28;102408;-70
2023/06/30 08:17:38;;;;;;;;;3.00;3.00;;;;;24.13;56.34;97955.03;4935949;28;102192;-70
2023/06/30 08:20:22;;;;;;;;;4.33;3.00;;;;;24.21;57.20;97957.94;4938070;28;102008;-70
2023/06/30 08:22:49;;;;;;;;;3.33;3.33;;;;;24.23;58.61;97965.91;4938982;28;108653;-70
2023/06/30 08:25:21;;;;;;;;;3.00;3.00;;;;;24.20;56.74;97969.28;4935966;28;102282;-70
2023/06/30 08:27:48;;;;;;;;;3.67;3.33;;;;;24.29;57.12;97957.22;4934498;28;102300;-70
2023/06/30 08:30:15;;;;;;;;;4.00;4.00;;;;;24.33;56.67;97963.78;4938618;28;102052;-70
2023/06/30 08:32:43;;;;;;;;;4.33;3.33;;;;;24.38;57.16;97962.84;4936541;28;103945;-70
2023/06/30 08:35:10;;;;;;;;;3.33;3.33;;;;;24.40;56.39;97955.09;4938068;28;101869;-70
2023/06/30 08:37:38;;;;;;;;;3.00;3.00;;;;;24.46;57.81;97959.38;4935914;28;102002;-70
2023/06/30 08:40:06;;;;;;;;;5.00;5.00;;;;;24.39;56.14;97945.16;4939099;28;101975;-70
2023/06/30 08:42:36;;;;;;;;;4.00;4.00;;;;;24.46;54.75;97951.09;4936524;28;103952;-70
2023/06/30 08:45:04;;;;;;;;;4.67;4.00;;;;;24.52;54.17;97949.03;4936660;28;106418;-70
2023/06/30 08:47:34;;;;;;;;;3.33;3.33;;;;;24.66;56.15;97947.94;4937227;28;102061;-70
2023/06/30 08:50:03;;;;;;;;;3.00;3.00;;;;;24.57;54.68;97938.72;4952385;28;103063;-70
2023/06/30 08:52:30;;;;;;;;;4.67;4.33;;;;;24.61;56.28;97950.78;4936013;28;104030;-70
2023/06/30 08:54:59;;;;;;;;;3.33;3.00;;;;;24.76;57.61;97938.59;4937596;28;102069;-70
2023/06/30 08:57:26;;;;;;;;;5.00;4.00;;;;;24.79;53.18;97940.75;4938082;28;102158;-70
2023/06/30 08:59:53;;;;;;;;;4.67;4.67;;;;;24.80;53.72;97943.22;4939449;28;103865;-69
2023/06/30 09:02:22;;;;;;;;;6.00;6.00;;;;;24.87;56.05;97942.81;4935111;28;104042;-70
2023/06/30 09:04:50;;;;;;;;;4.33;4.00;;;;;24.96;54.57;97937.34;4936373;28;102740;-70
2023/06/30 09:07:27;;;;;;;;;3.67;3.67;;;;;25.08;53.93;97932.91;4934078;28;102079;-70
2023/06/30 09:10:02;;;;;;;;;4.00;4.00;;;;;25.12;53.92;97922.06;4933659;28;103581;-70
2023/06/30 09:12:29;;;;;;;;;3.00;3.00;;;;;25.22;53.31;97932.88;4932327;28;104232;-70
2023/06/30 09:15:01;;;;;;;;;4.00;3.00;;;;;25.32;55.64;97927.09;4936388;28;102275;-70
2023/06/30 09:17:30;;;;;;;;;3.00;3.00;;;;;25.35;54.09;97920.16;4930201;28;102429;-69
2023/06/30 09:19:57;;;;;;;;;4.00;4.00;;;;;25.40;52.87;97922.81;4937241;28;101963;-70
2023/06/30 09:22:25;;;;;;;;;3.00;3.00;;;;;25.54;55.41;97918.03;4937177;28;104042;-70
2023/06/30 09:25:27;;;;;;;;;4.00;4.00;;;;;25.56;55.95;97924.91;4935564;28;102408;-70
2023/06/30 09:27:55;;;;;;;;;2.33;1.67;;;;;25.66;53.62;97919.13;4933368;28;102294;-70
2023/06/30 09:30:32;;;;;;;;;3.00;3.00;;;;;25.69;53.03;97925.97;4939599;28;102341;-70
2023/06/30 09:32:59;;;;;;;;;4.00;4.00;;;;;25.71;49.69;97923.72;4933596;28;111153;-70
2023/06/30 09:35:37;;;;;;;;;2.00;2.00;;;;;25.77;55.22;97912.16;4936913;28;101955;-70
2023/06/30 09:38:15;;;;;;;;;3.00;3.00;;;;;25.87;53.60;97921.34;4936519;28;101773;-70
2023/06/30 09:40:43;;;;;;;;;3.00;3.00;;;;;25.89;52.03;97919.09;4938285;28;102033;-71
2023/06/30 09:43:25;;;;;;;;;3.00;3.00;;;;;25.97;53.12;97904.47;4939898;28;104038;-70
2023/06/30 09:45:57;;;;;;;;;3.33;3.33;;;;;26.03;50.43;97912.31;4937865;28;101994;-70
2023/06/30 09:48:43;;;;;;;;;4.67;4.00;;;;;25.97;50.97;97908.06;4938435;28;102037;-68
2023/06/30 09:51:10;;;;;;;;;3.67;3.67;;;;;26.00;50.30;97909.38;4939204;28;102365;-69
2023/06/30 09:53:39;;;;;;;;;4.00;4.00;;;;;26.01;50.09;97911.00;4939348;28;104465;-69
2023/06/30 09:56:12;;;;;;;;;7.00;6.00;;;;;25.91;49.03;97916.81;4940409;28;102471;-69
2023/06/30 09:58:39;;;;;;;;;5.00;5.00;;;;;25.91;48.76;97920.41;4939197;28;101834;-69
2023/06/30 10:01:07;;;;;;;;;6.33;5.00;;;;;25.97;48.31;97921.91;4941033;28;102527;-69
2023/06/30 10:03:34;;;;;;;;;4.00;4.00;;;;;25.96;47.78;97902.81;4939206;28;104131;-70
2023/06/30 10:06:02;;;;;;;;;4.00;4.00;;;;;26.10;50.40;97900.78;4937601;28;102190;-70
2023/06/30 10:08:30;;;;;;;;;5.67;5.33;;;;;26.06;47.67;97908.94;4937831;28;102244;-70
2023/06/30 10:10:58;;;;;;;;;6.67;6.00;;;;;26.14;49.08;97915.63;4940650;28;102021;-69
2023/06/30 10:13:26;;;;;;;;;6.67;5.67;;;;;26.25;49.97;97922.59;4937768;28;104155;-69
2023/06/30 10:15:53;;;;;;;;;5.00;4.00;;;;;26.18;49.74;97905.53;4939486;28;102042;-70
2023/06/30 10:18:22;;;;;;;;;6.33;5.67;;;;;26.27;48.51;97903.66;4939188;28;101966;-70
2023/06/30 10:20:49;;;;;;;;;5.00;5.00;;;;;26.33;47.73;97898.78;4940108;28;102067;-69
2023/06/30 10:23:21;;;;;;;;;4.00;3.67;;;;;26.30;46.68;97914.09;4936488;28;104147;-70
2023/06/30 10:25:49;;;;;;;;;7.33;7.00;;;;;26.18;47.52;97911.09;4938147;28;102069;-70
2023/06/30 10:28:18;;;;;;;;;8.33;8.00;;;;;26.08;47.55;97903.88;4937078;28;101933;-72
2023/06/30 10:30:50;;;;;;;;;6.00;6.00;;;;;26.15;46.47;97895.09;4939897;28;102158;-69
2023/06/30 10:33:18;;;;;;;;;6.00;6.00;;;;;26.23;48.40;97894.34;4936823;28;104089;-69
2023/06/30 10:35:45;;;;;;;;;5.67;4.00;;;;;26.30;48.45;97886.38;4936806;28;102107;-69
2023/06/30 10:38:13;;;;;;;;;7.00;7.00;;;;;26.30;46.57;97894.69;4938450;28;102217;-69
2023/06/30 10:40:40;;;;;;;;;4.00;3.67;;;;;26.42;47.34;97894.91;4937738;28;103624;-69
2023/06/30 10:43:07;;;;;;;;;5.00;5.00;;;;;26.47;46.38;97886.47;4938184;28;104120;-70
2023/06/30 10:45:55;;;;;;;;;7.00;6.67;;;;;26.36;46.03;97893.41;4939030;28;101848;-70
2023/06/30 10:48:27;;;;;;;;;6.00;6.00;;;;;26.50;47.17;97885.81;4939489;28;102176;-70
2023/06/30 10:50:55;;;;;;;;;6.33;5.00;;;;;26.60;45.87;97888.28;4935436;28;101960;-70
2023/06/30 10:53:23;;;;;;;;;6.33;6.33;;;;;26.56;45.32;97883.72;4939897;28;108079;-71
2023/06/30 10:55:55;;;;;;;;;9.00;8.33;;;;;26.18;44.51;97888.91;4938433;28;102017;-70
2023/06/30 10:58:23;;;;;;;;;6.00;6.00;;;;;26.27;44.55;97887.03;4936346;28;102583;-71
2023/06/30 11:01:04;;;;;;;;;6.67;6.00;;;;;26.40;45.94;97883.31;4943924;28;102978;-72
2023/06/30 11:03:59;;;;;;;;;5.67;5.67;;;;;26.51;46.10;97884.69;4931102;28;108664;-71
2023/06/30 11:06:26;;;;;;;;;5.67;5.00;;;;;26.43;43.31;97879.91;4925466;28;102395;-71
2023/06/30 11:09:01;;;;;;;;;6.33;6.33;;;;;26.37;46.04;97883.16;4940359;28;102064;-71
2023/06/30 11:11:28;;;;;;;;;7.00;7.00;;;;;26.29;44.47;97881.19;4935907;28;102479;-75
2023/06/30 11:14:05;;;;;;;;;7.67;7.00;;;;;26.47;46.74;97883.69;4939951;28;104013;-70
2023/06/30 11:17:02;;;;;;;;;6.00;6.00;;;;;26.34;44.79;97881.84;4935470;28;101896;-70
2023/06/30 11:19:29;;;;;;;;;7.33;7.00;;;;;26.26;44.11;97882.63;4932526;28;102360;-70
2023/06/30 11:22:21;;;;;;;;;6.67;6.00;;;;;26.34;45.91;97883.81;4939872;28;104107;-70
2023/06/30 11:24:48;;;;;;;;;6.67;6.33;;;;;26.38;45.95;97873.72;4934877;28;104041;-71
2023/06/30 11:27:16;;;;;;;;;11.00;11.00;;;;;26.25;45.65;97872.69;4936671;28;102426;-71
2023/06/30 11:29:43;;;;;;;;;6.67;6.33;;;;;26.34;47.62;97868.00;4935306;28;102011;-69